Terminal Aerodrome Forecast
Issued by NWS Twin Cities, MN

Home | Current Version | Previous Version | Text Only | Print | Product List | Glossary Off
Versions: 1 2 3 4 5 6 7 8 9 10 11 12 13 14 15 16

000
FTUS43 KMPX 302341
TAFSTC
TAF
KSTC 302341Z 0100/0124 14007KT P6SM SCT250
     FM011000 17010KT P6SM -RA SCT050 OVC070
     FM011300 22007KT P6SM VCSH SCT050 SCT090
     FM011500 20009KT P6SM SCT080
     FM011700 31008KT P6SM FEW100=

USA.gov is the U.S. government's official web portal to all federal, state and local government web resources and services.